Santander, Cantabria

latitud = 43° 29' 28''N | longitud = 003° 48' 02''W
52 metros sobre el nivel del mar | datos mensuales

Fecha, hora, temperatura, viento dirección y velocidad, humedad y presión.

  • 21-01-2018 02:00:00 | 13.80°C | Noroeste |34.00 km/h | 85.00% | 1018.90 hPa
  • 21-01-2018 01:00:00 | 13.70°C | Noroeste |33.00 km/h | 85.00% | 1018.60 hPa
  • 21-01-2018 00:00:00 | 13.70°C | Noroeste |35.00 km/h | 85.00% | 1018.30 hPa
  • 20-01-2018 23:00:00 | 14.10°C | Noroeste |40.00 km/h | 82.00% | 1017.90 hPa
  • 20-01-2018 22:00:00 | 14.00°C | Noroeste |35.00 km/h | 82.00% | 1017.80 hPa
  • 20-01-2018 21:00:00 | 14.00°C | Noroeste |37.00 km/h | 83.00% | 1017.30 hPa
  • 20-01-2018 20:00:00 | 14.00°C | Noroeste |39.00 km/h | 82.00% | 1016.80 hPa
  • 20-01-2018 19:00:00 | 14.00°C | Noroeste |37.00 km/h | 82.00% | 1016.40 hPa
  • 20-01-2018 18:00:00 | 14.10°C | Noroeste |33.00 km/h | 82.00% | 1015.70 hPa
  • 20-01-2018 17:00:00 | 14.90°C | Oeste |31.00 km/h | 75.00% | 1015.00 hPa
  • 20-01-2018 16:00:00 | 14.90°C | Oeste |28.00 km/h | 76.00% | 1014.50 hPa
  • 20-01-2018 15:00:00 | 15.50°C | Oeste |26.00 km/h | 75.00% | 1014.30 hPa
  • 20-01-2018 14:00:00 | 15.10°C | Oeste |29.00 km/h | 73.00% | 1014.30 hPa
  • 20-01-2018 13:00:00 | 14.80°C | Oeste |34.00 km/h | 71.00% | 1015.00 hPa
  • 20-01-2018 12:00:00 | 14.50°C | Oeste |30.00 km/h | 61.00% | 1015.60 hPa
  • 20-01-2018 11:00:00 | 13.50°C | Sudoeste |19.00 km/h | 57.00% | 1015.70 hPa
  • 20-01-2018 10:00:00 | 11.80°C | Sudoeste |20.00 km/h | 66.00% | 1015.80 hPa
  • 20-01-2018 09:00:00 | 10.80°C | Sudoeste |19.00 km/h | 70.00% | 1016.00 hPa
  • 20-01-2018 08:00:00 | 10.50°C | Sudoeste |17.00 km/h | 67.00% | 1015.70 hPa
  • 20-01-2018 07:00:00 | 11.20°C | Sudoeste |14.00 km/h | 63.00% | 1015.20 hPa
  • 20-01-2018 06:00:00 | 11.30°C | Sudoeste |16.00 km/h | 63.00% | 1015.30 hPa
  • 20-01-2018 05:00:00 | 10.70°C | Sudoeste |15.00 km/h | 68.00% | 1016.00 hPa
  • 20-01-2018 04:00:00 | 10.30°C | Sudoeste |15.00 km/h | 73.00% | 1016.70 hPa
  • 20-01-2018 03:00:00 | 10.70°C | Sudoeste |11.00 km/h | 74.00% | 1017.90 hPa